createdAt,value
2023-05-02T00:00:45.472Z,12.07
2023-05-02T00:03:14.183Z,11.47
2023-05-02T00:05:44.134Z,10.93
2023-05-02T00:08:13.291Z,11.03
2023-05-02T00:10:41.764Z,9.93
2023-05-02T00:13:10.223Z,9.50
2023-05-02T00:15:38.701Z,10.70
2023-05-02T00:18:07.185Z,10.70
2023-05-02T00:20:35.618Z,9.90
2023-05-02T00:23:05.439Z,9.10
2023-05-02T00:25:33.823Z,9.80
2023-05-02T00:28:02.233Z,9.10
2023-05-02T00:30:30.704Z,9.47
2023-05-02T00:32:59.250Z,9.60
2023-05-02T00:35:27.766Z,8.97
2023-05-02T00:37:56.684Z,9.50
2023-05-02T00:40:26.567Z,9.17
2023-05-02T00:42:55.053Z,8.20
2023-05-02T00:45:23.509Z,8.47
2023-05-02T00:47:52.060Z,10.00
2023-05-02T00:50:21.029Z,9.07
2023-05-02T00:52:49.514Z,8.50
2023-05-02T00:55:18.001Z,9.03
2023-05-02T00:57:47.856Z,7.30
2023-05-02T01:00:16.375Z,8.20
2023-05-02T01:02:48.005Z,8.80
2023-05-02T01:05:17.852Z,7.77
2023-05-02T01:07:53.069Z,7.10
2023-05-02T01:10:25.958Z,6.80
2023-05-02T01:13:01.032Z,8.70
2023-05-02T01:15:29.715Z,6.77
2023-05-02T01:17:58.762Z,6.87
2023-05-02T01:20:29.301Z,7.20
2023-05-02T01:23:00.543Z,7.03
2023-05-02T01:25:31.598Z,6.83
2023-05-02T01:28:07.121Z,7.00
2023-05-02T01:30:39.387Z,7.00
2023-05-02T01:33:11.081Z,7.17
2023-05-02T01:35:40.006Z,5.97
2023-05-02T01:38:09.168Z,7.57
2023-05-02T01:40:38.942Z,6.77
2023-05-02T01:43:07.916Z,8.53
2023-05-02T01:45:38.084Z,7.30
2023-05-02T01:48:08.131Z,7.47
2023-05-02T01:50:37.986Z,7.67
2023-05-02T01:53:06.821Z,7.53
2023-05-02T01:55:36.524Z,7.43
2023-05-02T01:58:05.578Z,7.47
2023-05-02T02:00:34.809Z,6.63
2023-05-02T02:03:07.399Z,7.70
2023-05-02T02:05:36.584Z,7.17
2023-05-02T02:08:05.055Z,9.90
2023-05-02T02:10:37.824Z,7.30
2023-05-02T02:13:09.566Z,7.27
2023-05-02T02:15:39.801Z,7.97
2023-05-02T02:18:12.239Z,7.97
2023-05-02T02:20:41.053Z,6.00
2023-05-02T02:23:10.553Z,7.43
2023-05-02T02:25:39.464Z,8.03
2023-05-02T02:28:08.843Z,7.77
2023-05-02T02:30:37.485Z,8.03
2023-05-02T02:33:06.489Z,6.70
2023-05-02T02:35:39.619Z,7.07
2023-05-02T02:38:13.012Z,7.27
2023-05-02T02:40:44.788Z,6.70
2023-05-02T02:43:21.332Z,8.60
2023-05-02T02:45:55.475Z,6.63
2023-05-02T02:48:36.803Z,7.63
2023-05-02T02:51:12.801Z,7.07
2023-05-02T02:53:48.756Z,7.03
2023-05-02T02:56:17.795Z,7.43
2023-05-02T02:58:48.468Z,7.17
2023-05-02T03:01:21.010Z,6.63
2023-05-02T03:03:50.274Z,6.70
2023-05-02T03:06:21.031Z,8.07
2023-05-02T03:08:50.270Z,7.13
2023-05-02T03:11:18.745Z,7.87
2023-05-02T03:13:47.353Z,7.33
2023-05-02T03:16:30.801Z,9.13
2023-05-02T03:18:59.245Z,7.13
2023-05-02T03:21:31.596Z,6.80
2023-05-02T03:24:00.839Z,7.63
2023-05-02T03:26:29.525Z,7.33
2023-05-02T03:28:58.250Z,7.00
2023-05-02T03:31:26.992Z,6.83
2023-05-02T03:33:55.859Z,7.10
2023-05-02T03:36:24.343Z,7.00
2023-05-02T03:38:54.189Z,8.07
2023-05-02T03:41:22.939Z,8.67
2023-05-02T03:43:51.347Z,8.37
2023-05-02T03:46:19.856Z,8.47
2023-05-02T03:48:48.418Z,8.43
2023-05-02T03:51:17.339Z,7.67
2023-05-02T03:53:45.857Z,8.17
2023-05-02T03:56:20.196Z,8.20
2023-05-02T03:58:48.825Z,8.43
2023-05-02T04:01:17.649Z,7.97
2023-05-02T04:03:46.353Z,8.17
2023-05-02T04:06:15.108Z,8.73
2023-05-02T04:08:43.632Z,8.37
2023-05-02T04:11:12.489Z,7.23
2023-05-02T04:13:42.410Z,8.03
2023-05-02T04:16:11.317Z,7.07
2023-05-02T04:18:39.715Z,7.73
2023-05-02T04:21:10.472Z,7.90
2023-05-02T04:23:39.491Z,7.70
2023-05-02T04:26:07.914Z,8.67
2023-05-02T04:28:36.892Z,6.83
2023-05-02T04:31:07.471Z,8.20
2023-05-02T04:33:36.621Z,7.57
2023-05-02T04:36:05.181Z,7.57
2023-05-02T04:38:33.607Z,7.43
2023-05-02T04:41:09.162Z,7.13
2023-05-02T04:43:38.248Z,7.07
2023-05-02T04:46:08.102Z,8.30
2023-05-02T04:48:36.529Z,7.73
2023-05-02T04:51:05.067Z,6.77
2023-05-02T04:53:33.603Z,8.07
2023-05-02T04:56:01.991Z,9.17
2023-05-02T04:58:30.415Z,7.67
2023-05-02T05:00:59.661Z,8.67
2023-05-02T05:03:30.729Z,8.07
2023-05-02T05:05:59.229Z,8.13
2023-05-02T05:08:27.656Z,7.10
2023-05-02T05:10:56.154Z,7.57
2023-05-02T05:13:24.529Z,7.83
2023-05-02T05:15:52.904Z,7.03
2023-05-02T05:18:21.336Z,7.63
2023-05-02T05:20:51.201Z,7.80
2023-05-02T05:23:19.940Z,7.27
2023-05-02T05:25:48.302Z,7.40
2023-05-02T05:28:18.949Z,8.17
2023-05-02T05:30:47.445Z,8.77
2023-05-02T05:33:16.138Z,7.87
2023-05-02T05:35:44.639Z,7.63
2023-05-02T05:38:14.407Z,7.37
2023-05-02T05:40:42.879Z,7.80
2023-05-02T05:43:11.282Z,7.53
2023-05-02T05:45:39.650Z,9.03
2023-05-02T05:48:08.546Z,7.40
2023-05-02T05:50:36.981Z,7.23
2023-05-02T05:53:05.388Z,8.73
2023-05-02T05:55:36.572Z,7.17
2023-05-02T05:58:06.132Z,7.07
2023-05-02T06:00:36.162Z,6.93
2023-05-02T06:03:06.604Z,7.60
2023-05-02T06:05:36.446Z,8.33
2023-05-02T06:08:04.893Z,7.63
2023-05-02T06:10:34.643Z,7.07
2023-05-02T06:13:03.016Z,6.70
2023-05-02T06:15:31.392Z,7.33
2023-05-02T06:17:59.800Z,6.73
2023-05-02T06:20:28.318Z,7.73
2023-05-02T06:22:56.828Z,6.37
2023-05-02T06:25:25.153Z,7.50
2023-05-02T06:27:54.910Z,6.17
2023-05-02T06:30:23.374Z,7.03
2023-05-02T06:32:51.861Z,7.20
2023-05-02T06:35:20.595Z,7.60
2023-05-02T06:37:48.952Z,7.63
2023-05-02T06:40:17.484Z,6.40
2023-05-02T06:42:45.934Z,7.97
2023-05-02T06:45:15.841Z,12.87
2023-05-02T06:47:44.250Z,17.00
2023-05-02T06:50:12.937Z,16.53
2023-05-02T06:52:41.405Z,15.17
2023-05-02T06:55:10.220Z,15.57
2023-05-02T06:57:38.609Z,12.13
2023-05-02T07:00:07.588Z,13.63
2023-05-02T07:02:37.349Z,13.70
2023-05-02T07:05:06.356Z,11.93
2023-05-02T07:07:34.723Z,11.83
2023-05-02T07:10:03.369Z,12.67
2023-05-02T07:12:31.909Z,13.33
2023-05-02T07:15:00.352Z,11.27
2023-05-02T07:17:28.773Z,12.87
2023-05-02T07:19:58.567Z,11.80
2023-05-02T07:22:27.165Z,12.80
2023-05-02T07:24:59.607Z,12.60
2023-05-02T07:27:27.996Z,11.37
2023-05-02T07:29:57.304Z,11.70
2023-05-02T07:32:26.514Z,13.53
2023-05-02T07:34:56.259Z,11.13
2023-05-02T07:37:26.177Z,11.37
2023-05-02T07:39:54.664Z,13.67
2023-05-02T07:42:23.053Z,10.07
2023-05-02T07:44:51.403Z,12.87
2023-05-02T07:47:19.793Z,10.77
2023-05-02T07:49:48.217Z,8.37
2023-05-02T07:52:16.591Z,9.60
2023-05-02T07:54:46.349Z,11.87
2023-05-02T07:57:14.718Z,10.27
2023-05-02T07:59:43.082Z,10.57
2023-05-02T08:02:13.764Z,10.47
2023-05-02T08:04:42.673Z,8.90
2023-05-02T08:07:11.053Z,9.43
2023-05-02T08:09:39.404Z,9.57
2023-05-02T08:12:09.125Z,9.53
2023-05-02T08:14:37.454Z,9.37
2023-05-02T08:17:05.883Z,9.43
2023-05-02T08:19:34.297Z,8.97
2023-05-02T08:22:02.644Z,8.60
2023-05-02T08:24:31.547Z,8.23
2023-05-02T08:26:59.966Z,8.13
2023-05-02T08:29:29.773Z,9.53
2023-05-02T08:31:58.439Z,11.07
2023-05-02T08:34:26.863Z,8.77
2023-05-02T08:36:58.087Z,8.30
2023-05-02T08:39:26.820Z,8.97
2023-05-02T08:41:55.173Z,8.40
2023-05-02T08:44:23.592Z,7.70
2023-05-02T08:46:54.283Z,8.40
2023-05-02T08:49:22.729Z,8.73
2023-05-02T08:51:51.721Z,6.90
2023-05-02T08:54:20.483Z,7.97
2023-05-02T08:56:49.046Z,6.57
2023-05-02T08:59:17.414Z,6.77
2023-05-02T09:01:47.636Z,7.60
2023-05-02T09:04:17.412Z,8.50
2023-05-02T09:06:46.006Z,4.83
2023-05-02T09:09:14.539Z,4.00
2023-05-02T09:11:43.386Z,4.30
2023-05-02T09:14:16.584Z,4.10
2023-05-02T09:16:45.319Z,6.20
2023-05-02T09:19:25.422Z,5.37
2023-05-02T09:22:01.187Z,5.73
2023-05-02T09:24:29.715Z,4.90
2023-05-02T09:27:02.794Z,4.77
2023-05-02T09:29:36.074Z,4.30
2023-05-02T09:32:07.376Z,9.17
2023-05-02T09:34:37.445Z,9.27
2023-05-02T09:37:07.359Z,6.57
2023-05-02T09:39:35.732Z,4.73
2023-05-02T09:42:04.129Z,5.50
2023-05-02T09:44:38.914Z,4.70
2023-05-02T09:47:07.846Z,4.77
2023-05-02T09:49:42.778Z,4.67
2023-05-02T09:52:16.729Z,4.40
2023-05-02T09:54:46.608Z,4.60
2023-05-02T09:57:15.329Z,4.87
2023-05-02T09:59:43.968Z,4.90
2023-05-02T10:02:13.462Z,5.03
2023-05-02T10:04:42.109Z,4.93
2023-05-02T10:07:11.116Z,4.90
2023-05-02T10:09:45.226Z,4.33
2023-05-02T10:12:16.872Z,5.30
2023-05-02T10:14:48.157Z,5.43
2023-05-02T10:17:19.967Z,6.73
2023-05-02T10:19:54.606Z,5.13
2023-05-02T10:22:23.816Z,5.20
2023-05-02T10:24:54.848Z,5.38
2023-05-02T10:27:23.927Z,4.43
2023-05-02T10:29:54.539Z,4.27
2023-05-02T10:32:24.682Z,5.60
2023-05-02T10:34:53.712Z,4.60
2023-05-02T10:37:22.342Z,4.97
2023-05-02T10:39:50.749Z,3.63
2023-05-02T10:42:21.646Z,4.60
2023-05-02T10:44:50.542Z,5.03
2023-05-02T10:47:22.573Z,4.07
2023-05-02T10:49:54.493Z,3.80
2023-05-02T10:52:29.693Z,4.47
2023-05-02T10:55:17.897Z,4.07
2023-05-02T10:58:05.089Z,4.90
2023-05-02T11:00:35.861Z,4.37
2023-05-02T11:03:04.745Z,4.67
2023-05-02T11:05:37.085Z,5.07
2023-05-02T11:08:29.334Z,4.88
2023-05-02T11:10:57.903Z,3.93
2023-05-02T11:13:41.133Z,3.95
2023-05-02T11:16:11.017Z,3.93
2023-05-02T11:19:00.881Z,4.57
2023-05-02T11:21:30.116Z,4.17
2023-05-02T11:24:17.218Z,3.97
2023-05-02T11:26:45.717Z,2.90
2023-05-02T11:29:15.156Z,3.03
2023-05-02T11:32:04.939Z,3.27
2023-05-02T11:34:43.681Z,5.53
2023-05-02T11:37:13.107Z,3.47
2023-05-02T11:39:41.721Z,2.90
2023-05-02T11:42:10.335Z,2.87
2023-05-02T11:44:53.627Z,2.70
2023-05-02T11:47:22.353Z,3.35
2023-05-02T11:49:52.174Z,3.10
2023-05-02T11:52:20.914Z,2.67
2023-05-02T11:54:49.468Z,4.07
2023-05-02T11:57:17.916Z,2.90
2023-05-02T11:59:52.893Z,2.80
2023-05-02T12:02:21.449Z,2.50
2023-05-02T12:04:49.876Z,2.80
2023-05-02T12:07:19.689Z,2.95
2023-05-02T12:09:54.242Z,2.70
2023-05-02T12:12:23.080Z,2.50
2023-05-02T12:14:51.515Z,3.92
2023-05-02T12:17:20.011Z,3.20
2023-05-02T12:19:48.727Z,3.15
2023-05-02T12:22:17.317Z,3.85
2023-05-02T12:24:47.166Z,2.40
2023-05-02T12:27:16.226Z,2.30
2023-05-02T12:29:45.467Z,2.25
2023-05-02T12:32:14.206Z,4.25
2023-05-02T12:34:42.665Z,2.10
2023-05-02T12:37:11.856Z,2.20
2023-05-02T12:39:40.816Z,2.30
2023-05-02T12:42:14.631Z,2.10
2023-05-02T12:44:43.815Z,2.08
2023-05-02T12:47:13.193Z,2.17
2023-05-02T12:49:51.222Z,1.85
2023-05-02T12:52:19.859Z,2.42
2023-05-02T12:54:48.439Z,2.33
2023-05-02T12:57:28.285Z,3.47
2023-05-02T12:59:56.762Z,3.65
2023-05-02T13:02:25.967Z,2.08
2023-05-02T13:04:54.505Z,2.95
2023-05-02T13:07:22.918Z,1.90
2023-05-02T13:09:51.386Z,2.95
2023-05-02T13:12:19.887Z,2.28
2023-05-02T13:14:49.773Z,2.20
2023-05-02T13:17:18.464Z,2.00
2023-05-02T13:19:57.920Z,2.30
2023-05-02T13:22:29.879Z,2.15
2023-05-02T13:24:58.380Z,4.10
2023-05-02T13:27:26.828Z,2.65
2023-05-02T13:29:56.972Z,2.08
2023-05-02T13:32:25.833Z,3.95
2023-05-02T13:34:54.253Z,2.13
2023-05-02T13:37:23.368Z,3.08
2023-05-02T13:39:51.790Z,2.00
2023-05-02T13:42:20.200Z,2.05
2023-05-02T13:44:48.612Z,2.40
2023-05-02T13:47:18.433Z,3.05
2023-05-02T13:49:47.017Z,1.70
2023-05-02T13:52:15.425Z,1.73
2023-05-02T13:54:43.980Z,2.15
2023-05-02T13:57:12.720Z,1.55
2023-05-02T13:59:41.138Z,1.80
2023-05-02T14:02:10.141Z,1.73
2023-05-02T14:04:40.041Z,1.80
2023-05-02T14:07:08.415Z,1.77
2023-05-02T14:09:37.104Z,1.70
2023-05-02T14:12:06.468Z,2.00
2023-05-02T14:14:36.126Z,2.60
2023-05-02T14:17:05.456Z,1.88
2023-05-02T14:19:34.040Z,2.17
2023-05-02T14:22:03.865Z,1.95
2023-05-02T14:24:32.353Z,1.70
2023-05-02T14:27:01.504Z,1.73
2023-05-02T14:29:30.264Z,1.65
2023-05-02T14:31:58.851Z,1.60
2023-05-02T14:34:27.342Z,2.38
2023-05-02T14:36:55.986Z,2.00
2023-05-02T14:39:27.500Z,1.70
2023-05-02T14:41:56.001Z,2.90
2023-05-02T14:44:24.429Z,1.80
2023-05-02T14:46:56.481Z,3.50
2023-05-02T14:49:25.406Z,1.60
2023-05-02T14:51:55.047Z,2.00
2023-05-02T14:54:30.290Z,1.80
2023-05-02T14:56:59.838Z,1.65
2023-05-02T14:59:30.589Z,2.00
2023-05-02T15:01:59.402Z,2.20
2023-05-02T15:04:28.497Z,2.33
2023-05-02T15:06:58.329Z,1.70
2023-05-02T15:09:27.232Z,2.65
2023-05-02T15:11:57.072Z,2.03
2023-05-02T15:14:25.531Z,1.70
2023-05-02T15:16:54.841Z,2.22
2023-05-02T15:19:25.114Z,2.35
2023-05-02T15:21:57.268Z,2.00
2023-05-02T15:24:25.870Z,1.70
2023-05-02T15:26:54.261Z,2.38
2023-05-02T15:29:24.115Z,2.08
2023-05-02T15:31:52.600Z,2.58
2023-05-02T15:34:21.126Z,2.17
2023-05-02T15:36:49.664Z,1.80
2023-05-02T15:39:19.268Z,2.20
2023-05-02T15:41:47.965Z,1.90
2023-05-02T15:44:16.410Z,2.00
2023-05-02T15:46:47.033Z,1.77
2023-05-02T15:49:15.903Z,1.73
2023-05-02T15:51:44.359Z,1.50
2023-05-02T15:54:12.777Z,1.73
2023-05-02T15:56:41.160Z,1.70
2023-05-02T15:59:09.889Z,2.25
2023-05-02T16:01:39.556Z,3.47
2023-05-02T16:04:09.992Z,3.00
2023-05-02T16:06:41.250Z,1.70
2023-05-02T16:09:10.150Z,1.63
2023-05-02T16:11:38.674Z,1.70
2023-05-02T16:14:07.210Z,2.15
2023-05-02T16:16:35.791Z,1.70
2023-05-02T16:19:04.210Z,1.58
2023-05-02T16:21:34.001Z,1.60
2023-05-02T16:24:03.111Z,1.50
2023-05-02T16:26:31.491Z,1.30
2023-05-02T16:28:59.889Z,1.42
2023-05-02T16:31:28.392Z,1.27
2023-05-02T16:33:58.101Z,1.50
2023-05-02T16:36:26.552Z,2.45
2023-05-02T16:38:56.343Z,1.50
2023-05-02T16:41:24.770Z,1.30
2023-05-02T16:43:53.228Z,1.52
2023-05-02T16:46:21.634Z,1.27
2023-05-02T16:48:50.069Z,1.50
2023-05-02T16:51:18.494Z,1.30
2023-05-02T16:53:46.965Z,1.30
2023-05-02T16:56:17.263Z,1.50
2023-05-02T16:58:45.975Z,1.40
2023-05-02T17:01:14.673Z,1.30
2023-05-02T17:03:43.197Z,1.98
2023-05-02T17:06:11.697Z,1.45
2023-05-02T17:08:40.215Z,1.43
2023-05-02T17:11:08.718Z,3.20
2023-05-02T17:13:38.563Z,1.48
2023-05-02T17:16:08.399Z,5.13
2023-05-02T17:18:37.173Z,1.43
2023-05-02T17:21:06.194Z,1.43
2023-05-02T17:23:34.920Z,1.50
2023-05-02T17:26:04.242Z,1.47
2023-05-02T17:28:32.722Z,3.90
2023-05-02T17:31:03.483Z,1.60
2023-05-02T17:33:32.104Z,1.83
2023-05-02T17:36:00.595Z,1.80
2023-05-02T17:38:29.027Z,1.60
2023-05-02T17:40:57.425Z,1.50
2023-05-02T17:43:25.937Z,1.50
2023-05-02T17:45:54.360Z,1.93
2023-05-02T17:48:24.206Z,1.60
2023-05-02T17:50:53.452Z,1.53
2023-05-02T17:53:22.517Z,1.50
2023-05-02T17:55:51.277Z,2.50
2023-05-02T17:58:19.679Z,1.47
2023-05-02T18:00:48.084Z,3.00
2023-05-02T18:03:16.705Z,1.67
2023-05-02T18:05:47.754Z,2.73
2023-05-02T18:08:16.606Z,1.60
2023-05-02T18:10:45.014Z,1.60
2023-05-02T18:13:13.419Z,1.57
2023-05-02T18:15:41.885Z,1.50
2023-05-02T18:18:10.342Z,1.40
2023-05-02T18:20:43.053Z,1.53
2023-05-02T18:23:12.860Z,1.70
2023-05-02T18:25:41.339Z,2.00
2023-05-02T18:28:10.074Z,1.60
2023-05-02T18:30:38.587Z,1.53
2023-05-02T18:33:07.580Z,2.63
2023-05-02T18:35:36.493Z,1.73
2023-05-02T18:38:07.755Z,1.30
2023-05-02T18:40:37.543Z,1.30
2023-05-02T18:43:05.993Z,1.50
2023-05-02T18:45:34.934Z,1.50
2023-05-02T18:48:04.110Z,1.43
2023-05-02T18:50:32.582Z,1.40
2023-05-02T18:53:01.015Z,1.50
2023-05-02T18:55:29.427Z,1.40
2023-05-02T18:57:59.262Z,1.93
2023-05-02T19:00:30.170Z,1.60
2023-05-02T19:02:58.751Z,1.73
2023-05-02T19:05:27.665Z,1.70
2023-05-02T19:07:56.134Z,1.53
2023-05-02T19:10:24.561Z,1.63
2023-05-02T19:12:53.194Z,2.03
2023-05-02T19:15:23.877Z,1.60
2023-05-02T19:17:53.335Z,1.50
2023-05-02T19:20:21.780Z,1.70
2023-05-02T19:22:52.875Z,2.57
2023-05-02T19:25:24.252Z,1.70
2023-05-02T19:27:52.814Z,1.80
2023-05-02T19:30:21.876Z,3.53
2023-05-02T19:32:51.864Z,2.20
2023-05-02T19:35:20.557Z,2.10
2023-05-02T19:37:48.941Z,2.03
2023-05-02T19:40:17.466Z,1.80
2023-05-02T19:42:45.907Z,1.50
2023-05-02T19:45:14.758Z,1.80
2023-05-02T19:47:45.635Z,2.13
2023-05-02T19:50:16.521Z,1.80
2023-05-02T19:52:45.156Z,1.90
2023-05-02T19:55:13.607Z,1.57
2023-05-02T19:57:44.223Z,2.13
2023-05-02T20:00:14.102Z,1.67
2023-05-02T20:02:42.631Z,1.57
2023-05-02T20:05:11.728Z,1.50
2023-05-02T20:07:41.550Z,1.63
2023-05-02T20:10:10.716Z,1.63
2023-05-02T20:12:39.153Z,1.70
2023-05-02T20:15:08.208Z,2.03
2023-05-02T20:17:36.659Z,1.60
2023-05-02T20:20:08.185Z,1.70
2023-05-02T20:22:36.775Z,1.70
2023-05-02T20:25:06.951Z,2.10
2023-05-02T20:27:35.400Z,2.20
2023-05-02T20:30:04.050Z,1.73
2023-05-02T20:32:32.823Z,1.60
2023-05-02T20:35:01.265Z,2.03
2023-05-02T20:37:29.992Z,1.63
2023-05-02T20:39:58.552Z,2.13
2023-05-02T20:42:28.871Z,1.40
2023-05-02T20:44:58.792Z,1.40
2023-05-02T20:47:27.791Z,1.57
2023-05-02T20:49:56.536Z,1.53
2023-05-02T20:52:25.098Z,1.60
2023-05-02T20:54:55.677Z,1.80
2023-05-02T20:57:24.410Z,1.60
2023-05-02T20:59:54.496Z,1.80
2023-05-02T21:02:22.935Z,2.50
2023-05-02T21:04:51.632Z,2.27
2023-05-02T21:07:20.072Z,2.40
2023-05-02T21:09:48.546Z,1.90
2023-05-02T21:12:17.145Z,2.00
2023-05-02T21:14:45.613Z,1.70
2023-05-02T21:17:16.131Z,2.90
2023-05-02T21:19:44.572Z,1.77
2023-05-02T21:22:12.989Z,1.90
2023-05-02T21:24:41.424Z,1.70
2023-05-02T21:27:09.913Z,2.07
2023-05-02T21:29:38.415Z,2.00
2023-05-02T21:32:07.402Z,2.13
2023-05-02T21:34:37.338Z,2.63
2023-05-02T21:37:06.638Z,2.03
2023-05-02T21:39:35.066Z,2.00
2023-05-02T21:42:03.488Z,2.00
2023-05-02T21:44:31.957Z,2.20
2023-05-02T21:47:00.404Z,2.40
2023-05-02T21:49:31.451Z,2.20
2023-05-02T21:52:01.292Z,2.20
2023-05-02T21:54:29.746Z,2.50
2023-05-02T21:56:58.197Z,3.03
2023-05-02T21:59:26.612Z,2.03
2023-05-02T22:01:55.105Z,2.80
2023-05-02T22:04:24.878Z,2.70
2023-05-02T22:06:53.858Z,2.30
2023-05-02T22:09:23.733Z,2.07
2023-05-02T22:11:52.208Z,2.20
2023-05-02T22:14:22.052Z,2.77
2023-05-02T22:16:54.892Z,2.30
2023-05-02T22:19:23.395Z,2.27
2023-05-02T22:21:51.793Z,2.50
2023-05-02T22:24:20.296Z,2.37
2023-05-02T22:26:52.039Z,2.50
2023-05-02T22:29:20.596Z,2.40
2023-05-02T22:31:50.001Z,2.20
2023-05-02T22:34:18.513Z,4.03
2023-05-02T22:36:47.064Z,2.70
2023-05-02T22:39:15.825Z,2.00
2023-05-02T22:41:44.448Z,2.20
2023-05-02T22:44:14.248Z,2.00
2023-05-02T22:46:42.852Z,2.63
2023-05-02T22:49:11.448Z,2.47
2023-05-02T22:51:41.047Z,2.23
2023-05-02T22:54:10.412Z,2.43
2023-05-02T22:56:38.854Z,2.30
2023-05-02T22:59:07.257Z,4.33
2023-05-02T23:01:37.206Z,2.40
2023-05-02T23:04:05.747Z,2.50
2023-05-02T23:06:34.305Z,2.23
2023-05-02T23:09:02.811Z,5.10
2023-05-02T23:11:31.232Z,3.23
2023-05-02T23:13:59.654Z,2.73
2023-05-02T23:16:28.212Z,3.13
2023-05-02T23:18:58.001Z,3.47
2023-05-02T23:21:26.484Z,2.53
2023-05-02T23:23:55.099Z,2.30
2023-05-02T23:26:23.494Z,2.57
2023-05-02T23:28:51.887Z,2.90
2023-05-02T23:31:20.348Z,3.53
2023-05-02T23:33:48.831Z,2.20
2023-05-02T23:36:18.650Z,2.93
2023-05-02T23:38:47.168Z,2.37
2023-05-02T23:41:15.593Z,3.83
2023-05-02T23:43:44.283Z,2.37
2023-05-02T23:46:12.761Z,3.50
2023-05-02T23:48:41.245Z,4.17
2023-05-02T23:51:09.661Z,2.23
2023-05-02T23:53:39.479Z,2.20
2023-05-02T23:56:08.321Z,2.63
2023-05-02T23:58:36.771Z,2.03
